Time;durP1;ratioP1;P1;durP2;ratioP2;P2;SDS_P1;SDS_P2;PMS_P1;PMS_P2;Temp;Humidity;BMP_temperature;BMP_pressure;BME280_temperature;BME280_humidity;BME280_pressure;Samples;Min_cycle;Max_cycle;Signal;HPM_P1;HPM_P2
2023/09/16 00:01:11;;;;;;;0.00;0.00;;;;;;;14.73;67.00;101101.03;7359826;19;20023;-63
2023/09/16 00:03:36;;;;;;;0.10;0.10;;;;;;;14.73;66.59;101100.16;7362656;19;20010;-63
2023/09/16 00:06:04;;;;;;;0.10;0.10;;;;;;;14.71;66.90;101108.13;7362856;19;20762;-63
2023/09/16 00:08:29;;;;;;;;;;;;;;;14.76;65.55;101106.19;7362050;19;20011;-64
2023/09/16 00:10:55;;;;;;;0.00;0.00;;;;;;;14.72;66.79;101101.94;7359083;19;19915;-63
2023/09/16 00:13:20;;;;;;;0.10;0.10;;;;;;;14.71;66.54;101102.84;7357994;19;20075;-63
2023/09/16 00:15:48;;;;;;;0.10;0.10;;;;;;;14.70;67.01;101106.41;7367002;19;20031;-63
2023/09/16 00:18:16;;;;;;;0.10;0.10;;;;;;;14.69;66.92;101107.28;7369894;19;20847;-63
2023/09/16 00:20:42;;;;;;;0.10;0.10;;;;;;;14.69;66.56;101101.16;7363144;19;20010;-63
2023/09/16 00:23:09;;;;;;;0.10;0.10;;;;;;;14.62;66.76;101097.91;7358568;19;20042;-63
2023/09/16 00:25:34;;;;;;;0.10;0.10;;;;;;;14.68;66.85;101102.94;7359189;19;20856;-63
2023/09/16 00:28:00;;;;;;;0.10;0.10;;;;;;;14.65;66.94;101105.69;7355562;19;20015;-63
2023/09/16 00:30:25;;;;;;;0.10;0.10;;;;;;;14.69;66.69;101109.91;7363149;19;20065;-63
2023/09/16 00:32:51;;;;;;;0.10;0.10;;;;;;;14.58;66.69;101085.75;7364015;19;20489;-63
2023/09/16 00:35:16;;;;;;;0.10;0.10;;;;;;;14.69;67.06;101104.66;7358970;19;20425;-63
2023/09/16 00:37:43;;;;;;;0.10;0.10;;;;;;;14.69;67.15;101103.81;7361787;19;20044;-63
2023/09/16 00:40:09;;;;;;;0.10;0.10;;;;;;;14.68;67.30;101108.19;7360791;19;20017;-63
2023/09/16 00:42:38;;;;;;;0.10;0.10;;;;;;;14.68;66.99;101113.47;7358978;19;20006;-63
2023/09/16 00:45:05;;;;;;;0.10;0.10;;;;;;;14.69;67.36;101114.31;7363177;19;20470;-63
2023/09/16 00:47:31;;;;;;;;;;;;;;;14.72;66.10;101122.13;7363179;19;20019;-63
2023/09/16 00:49:57;;;;;;;0.10;0.10;;;;;;;14.67;67.04;101122.25;7360656;19;20341;-63
2023/09/16 00:52:22;;;;;;;0.05;0.05;;;;;;;14.66;67.13;101109.19;7364425;19;20006;-63
2023/09/16 00:54:51;;;;;;;0.10;0.10;;;;;;;14.65;67.43;101112.69;7366884;19;20006;-63
2023/09/16 00:57:17;;;;;;;0.10;0.10;;;;;;;14.60;67.63;101112.88;7364266;19;20022;-63
2023/09/16 00:59:44;;;;;;;0.10;0.10;;;;;;;14.61;67.68;101117.22;7367493;19;20011;-63
2023/09/16 01:02:09;;;;;;;0.00;0.00;;;;;;;14.60;67.27;101119.88;7366277;19;20011;-63
2023/09/16 01:04:36;;;;;;;0.03;0.03;;;;;;;14.60;67.37;101114.63;7368702;19;20254;-63
2023/09/16 01:07:02;;;;;;;0.03;0.03;;;;;;;14.60;67.54;101114.63;7368169;19;20014;-63
2023/09/16 01:09:29;;;;;;;0.10;0.10;;;;;;;14.59;67.47;101113.75;7369531;19;20037;-63
2023/09/16 01:11:54;;;;;;;0.10;0.10;;;;;;;14.59;67.28;101113.75;7365726;19;20014;-63
2023/09/16 01:14:20;;;;;;;0.10;0.10;;;;;;;14.58;67.15;101112.03;7367723;19;20018;-63
2023/09/16 01:17:02;;;;;;;0.10;0.10;;;;;;;14.62;66.67;101107.56;7367472;19;20010;-63
2023/09/16 01:19:54;;;;;;;0.10;0.10;;;;;;;14.61;66.92;101111.97;7365698;19;20014;-63
2023/09/16 01:22:20;;;;;;;0.10;0.10;;;;;;;14.58;67.68;101111.19;7368169;19;20010;-63
2023/09/16 01:24:52;;;;;;;0.10;0.10;;;;;;;14.56;67.29;101113.88;7366987;19;20058;-63
2023/09/16 01:27:18;;;;;;;0.10;0.10;;;;;;;14.52;67.49;101113.09;7368127;19;20014;-63
2023/09/16 01:29:44;;;;;;;0.05;0.05;;;;;;;14.55;67.61;101117.41;7368409;19;20022;-63
2023/09/16 01:32:12;;;;;;;0.00;0.00;;;;;;;14.53;67.45;101113.97;7368088;19;21094;-64
2023/09/16 01:34:41;;;;;;;0.10;0.10;;;;;;;14.58;67.32;101121.69;7368250;19;20592;-63
2023/09/16 01:37:12;;;;;;;0.10;0.10;;;;;;;14.53;67.13;101121.84;7364411;19;20093;-63
2023/09/16 01:39:39;;;;;;;0.10;0.10;;;;;;;14.56;67.15;101124.38;7366708;19;20011;-63
2023/09/16 01:42:05;;;;;;;0.05;0.05;;;;;;;14.55;67.12;101122.69;7364170;19;20011;-63
2023/09/16 01:44:31;;;;;;;0.00;0.00;;;;;;;14.56;67.58;101121.75;7366939;19;20006;-63
2023/09/16 01:46:57;;;;;;;0.10;0.10;;;;;;;14.54;67.58;101120.94;7367280;19;20030;-63
2023/09/16 01:49:22;;;;;;;0.10;0.10;;;;;;;14.57;67.06;101117.38;7372567;19;20009;-63
2023/09/16 01:51:48;;;;;;;0.10;0.10;;;;;;;14.58;67.32;101116.44;7367536;19;20489;-63
2023/09/16 01:54:13;;;;;;;0.10;0.10;;;;;;;14.58;67.69;101108.56;7366511;19;20017;-63
2023/09/16 01:56:39;;;;;;;0.10;0.10;;;;;;;14.58;67.61;101108.56;7368362;19;20017;-63
2023/09/16 01:59:04;;;;;;;0.10;0.10;;;;;;;14.58;67.10;101103.31;7365447;19;20019;-63
2023/09/16 02:01:29;;;;;;;0.10;0.10;;;;;;;14.54;67.20;101099.91;7367729;19;20010;-63
2023/09/16 02:03:58;;;;;;;0.10;0.10;;;;;;;14.59;67.27;101112.91;7356977;19;21395;-63
2023/09/16 02:06:23;;;;;;;0.10;0.10;;;;;;;14.42;67.40;101079.25;7368994;19;20509;-63
2023/09/16 02:08:48;;;;;;;0.10;0.10;;;;;;;14.43;67.34;101091.50;7369629;19;20018;-63
2023/09/16 02:11:14;;;;;;;0.10;0.10;;;;;;;14.57;67.42;101110.34;7366435;19;20045;-63
2023/09/16 02:13:40;;;;;;;0.00;0.00;;;;;;;14.57;67.31;101109.47;7368512;19;20010;-63
2023/09/16 02:16:05;;;;;;;0.10;0.10;;;;;;;14.59;67.39;101115.53;7369903;19;20006;-63
2023/09/16 02:18:31;;;;;;;0.10;0.10;;;;;;;14.52;67.14;101112.25;7365521;19;20006;-63
2023/09/16 02:20:56;;;;;;;0.10;0.10;;;;;;;14.59;67.06;101120.78;7371061;19;20082;-63
2023/09/16 02:23:22;;;;;;;0.10;0.10;;;;;;;14.59;67.00;101126.03;7367194;19;20005;-63
2023/09/16 02:25:47;;;;;;;0.00;0.00;;;;;;;14.58;67.07;101119.94;7369643;19;20030;-63
2023/09/16 02:28:13;;;;;;;0.10;0.10;;;;;;;14.59;67.12;101121.63;7365714;19;20003;-63
2023/09/16 02:30:39;;;;;;;0.10;0.10;;;;;;;14.59;67.46;101118.16;7362643;19;20008;-63
2023/09/16 02:33:04;;;;;;;0.03;0.03;;;;;;;14.54;67.17;101107.78;7366550;19;20081;-63
2023/09/16 02:35:29;;;;;;;0.03;0.03;;;;;;;14.56;67.13;101107.75;7369702;19;20382;-63
2023/09/16 02:37:57;;;;;;;0.10;0.10;;;;;;;14.56;67.26;101108.63;7368744;19;20014;-63
2023/09/16 02:40:22;;;;;;;0.10;0.10;;;;;;;14.57;67.31;101112.09;7361925;19;20017;-63
2023/09/16 02:42:47;;;;;;;0.08;0.08;;;;;;;14.57;67.45;101114.72;7366307;19;20002;-63
2023/09/16 02:45:13;;;;;;;0.13;0.13;;;;;;;14.56;67.36;101113.88;7370615;19;20106;-63
2023/09/16 02:47:38;;;;;;;0.10;0.10;;;;;;;14.56;67.46;101108.63;7366950;19;19995;-63
2023/09/16 02:50:04;;;;;;;0.10;0.10;;;;;;;14.57;67.10;101126.09;7368981;19;20007;-63
2023/09/16 02:52:30;;;;;;;0.10;0.10;;;;;;;14.56;67.52;101124.38;7363662;19;20002;-63
2023/09/16 02:54:55;;;;;;;0.10;0.10;;;;;;;14.49;67.30;101107.94;7366873;19;19998;-63
2023/09/16 02:57:20;;;;;;;0.10;0.10;;;;;;;14.57;67.54;101125.25;7368605;19;20793;-63
2023/09/16 02:59:46;;;;;;;0.10;0.10;;;;;;;14.56;67.39;101128.78;7368083;19;19999;-63
2023/09/16 03:02:12;;;;;;;0.10;0.10;;;;;;;14.23;67.33;101069.34;7365039;19;20086;-63
2023/09/16 03:04:38;;;;;;;0.00;0.00;;;;;;;14.57;67.44;101115.59;7369862;19;21129;-63
2023/09/16 03:07:03;;;;;;;0.10;0.10;;;;;;;14.57;67.29;101115.59;7366027;19;20018;-63
2023/09/16 03:09:29;;;;;;;0.10;0.10;;;;;;;14.57;67.49;101112.97;7362818;19;19998;-63
2023/09/16 03:11:54;;;;;;;0.00;0.00;;;;;;;14.44;67.39;101096.69;7362861;19;20018;-63
2023/09/16 03:14:19;;;;;;;0.17;0.17;;;;;;;14.57;67.64;101120.84;7362455;19;20007;-63
2023/09/16 03:16:45;;;;;;;0.10;0.10;;;;;;;14.57;67.25;101112.97;7364630;19;20060;-63
2023/09/16 03:19:11;;;;;;;0.10;0.10;;;;;;;14.53;67.36;101109.56;7339544;19;20006;-63
2023/09/16 03:21:36;;;;;;;0.10;0.10;;;;;;;14.55;67.62;101114.78;7368641;19;20478;-64
2023/09/16 03:24:02;;;;;;;0.10;0.10;;;;;;;14.57;67.63;101114.72;7353771;19;20014;-63
2023/09/16 03:26:27;;;;;;;0.00;0.00;;;;;;;14.46;67.50;101104.53;7372091;19;20015;-63
2023/09/16 03:28:54;;;;;;;0.10;0.10;;;;;;;14.57;67.29;101126.09;7370223;19;20016;-63
2023/09/16 03:31:20;;;;;;;0.10;0.10;;;;;;;14.56;67.70;101132.28;7360844;19;20020;-63
2023/09/16 03:33:45;;;;;;;0.10;0.10;;;;;;;14.57;67.53;101141.88;7371611;19;20078;-63
2023/09/16 03:36:11;;;;;;;0.10;0.10;;;;;;;14.56;67.52;101129.66;7367590;19;20018;-63
2023/09/16 03:38:49;;;;;;;0.10;0.10;;;;;;;14.52;67.09;101117.50;7369988;19;20036;-63
2023/09/16 03:41:15;;;;;;;0.10;0.10;;;;;;;14.56;67.45;101127.03;7376825;19;20063;-64
2023/09/16 03:43:40;;;;;;;0.05;0.05;;;;;;;14.56;67.73;101134.91;7369606;19;20009;-63
2023/09/16 03:46:06;;;;;;;0.05;0.05;;;;;;;14.55;67.59;101138.44;7368154;19;20014;-63
2023/09/16 03:48:31;;;;;;;0.10;0.10;;;;;;;14.54;67.35;101132.31;7360232;19;20591;-63
2023/09/16 03:50:57;;;;;;;0.10;0.10;;;;;;;14.47;67.20;101119.38;7365561;19;20109;-63
2023/09/16 03:53:25;;;;;;;0.10;0.10;;;;;;;14.47;67.27;101114.13;7363502;19;20018;-63
2023/09/16 03:55:53;;;;;;;0.10;0.10;;;;;;;14.56;67.37;101132.28;7365557;19;20960;-63
2023/09/16 03:58:19;;;;;;;0.08;0.08;;;;;;;14.57;67.23;101135.75;7363646;19;20011;-63
2023/09/16 04:00:45;;;;;;;0.10;0.10;;;;;;;14.56;67.57;101134.91;7361258;19;20014;-63
2023/09/16 04:03:11;;;;;;;0.10;0.10;;;;;;;14.56;67.45;101144.56;7361999;19;20013;-63
2023/09/16 04:05:37;;;;;;;0.10;0.10;;;;;;;14.51;67.68;101132.41;7362959;19;20462;-63
2023/09/16 04:08:02;;;;;;;0.10;0.10;;;;;;;14.57;67.23;101135.75;7366141;19;20033;-63
2023/09/16 04:10:28;;;;;;;0.10;0.10;;;;;;;14.50;67.68;101129.84;7363456;19;20014;-63
2023/09/16 04:12:53;;;;;;;0.10;0.10;;;;;;;14.57;67.52;101135.75;7364538;19;20006;-63
2023/09/16 04:15:18;;;;;;;0.10;0.10;;;;;;;14.54;67.48;101137.56;7366925;19;20013;-63
2023/09/16 04:17:44;;;;;;;0.10;0.10;;;;;;;14.55;67.61;101133.19;7361325;19;20458;-63
2023/09/16 04:20:10;;;;;;;0.10;0.10;;;;;;;14.56;67.62;101142.78;7363994;19;20006;-63
2023/09/16 04:22:35;;;;;;;0.10;0.10;;;;;;;14.57;67.41;101146.28;7364777;19;20014;-63
2023/09/16 04:25:01;;;;;;;0.10;0.10;;;;;;;14.49;67.26;101134.22;7364900;19;20003;-63
2023/09/16 04:27:26;;;;;;;0.00;0.00;;;;;;;14.55;67.15;101151.59;7362847;19;20010;-63
2023/09/16 04:29:52;;;;;;;0.10;0.10;;;;;;;14.45;67.21;101131.72;7362971;19;20066;-63
2023/09/16 04:32:17;;;;;;;0.10;0.10;;;;;;;14.54;67.26;101142.81;7360776;19;20487;-63
2023/09/16 04:34:42;;;;;;;0.10;0.10;;;;;;;14.57;67.10;101146.28;7359320;19;20007;-63
2023/09/16 04:37:10;;;;;;;0.10;0.10;;;;;;;14.54;67.52;101147.22;7364505;19;20029;-63
2023/09/16 04:39:36;;;;;;;0.10;0.10;;;;;;;14.56;67.32;101150.66;7364339;19;20639;-63
2023/09/16 04:42:02;;;;;;;0.10;0.10;;;;;;;14.55;67.51;101154.22;7364352;19;20014;-63
2023/09/16 04:44:29;;;;;;;0.10;0.10;;;;;;;14.49;67.34;101149.97;7362793;19;20010;-63
2023/09/16 04:46:54;;;;;;;0.10;0.10;;;;;;;14.52;67.06;101142.00;7364635;19;20014;-63
2023/09/16 04:49:20;;;;;;;0.20;0.20;;;;;;;14.53;67.29;101141.09;7365087;19;20030;-63
2023/09/16 04:51:46;;;;;;;0.00;0.00;;;;;;;14.54;67.38;101142.81;7363707;19;20429;-63
2023/09/16 04:54:11;;;;;;;0.10;0.10;;;;;;;14.54;66.96;101147.22;7364837;19;20017;-63
2023/09/16 04:56:37;;;;;;;0.10;0.10;;;;;;;14.53;66.99;101156.00;7360374;19;20010;-63
2023/09/16 04:59:03;;;;;;;0.10;0.10;;;;;;;14.52;67.11;101154.31;7365842;19;20010;-63
2023/09/16 05:01:29;;;;;;;0.10;0.10;;;;;;;14.52;67.30;101156.94;7362909;19;20011;-63
2023/09/16 05:03:55;;;;;;;0.05;0.05;;;;;;;14.41;67.53;101135.34;7364352;19;20489;-63
2023/09/16 05:06:20;;;;;;;0.10;0.10;;;;;;;14.52;67.16;101149.03;7361922;19;20015;-63
2023/09/16 05:08:46;;;;;;;0.10;0.10;;;;;;;14.52;67.34;101149.03;7362962;19;20042;-63
2023/09/16 05:11:12;;;;;;;0.10;0.10;;;;;;;14.50;67.33;101151.72;7362899;19;20466;-63
2023/09/16 05:13:38;;;;;;;0.10;0.10;;;;;;;14.50;67.02;101153.50;7363801;19;20020;-63
2023/09/16 05:16:03;;;;;;;0.10;0.10;;;;;;;14.49;67.17;101159.63;7363773;19;20021;-63
2023/09/16 05:18:29;;;;;;;0.10;0.10;;;;;;;14.47;67.20;101150.94;7365564;19;20011;-63
2023/09/16 05:20:54;;;;;;;0.10;0.10;;;;;;;14.49;66.98;101154.38;7365873;19;20593;-63
2023/09/16 05:23:23;;;;;;;0.10;0.10;;;;;;;14.30;67.26;101126.97;7367340;19;20049;-63
2023/09/16 05:25:49;;;;;;;0.10;0.10;;;;;;;14.48;67.49;101155.31;7362182;19;20002;-63
2023/09/16 05:28:15;;;;;;;0.10;0.10;;;;;;;14.48;67.38;101155.31;7352371;19;20022;-63
2023/09/16 05:30:42;;;;;;;0.10;0.10;;;;;;;14.42;67.41;101147.59;7371446;19;20034;-63
2023/09/16 05:33:09;;;;;;;0.10;0.10;;;;;;;14.46;67.44;101154.47;7362507;19;20018;-63
2023/09/16 05:35:34;;;;;;;0.10;0.10;;;;;;;14.46;67.59;101164.97;7365947;19;20742;-63
2023/09/16 05:38:00;;;;;;;0.10;0.10;;;;;;;14.46;67.70;101164.97;7368505;19;20017;-63
2023/09/16 05:40:25;;;;;;;0.10;0.10;;;;;;;14.44;67.29;101177.28;7374851;19;20022;-63
2023/09/16 05:42:51;;;;;;;0.10;0.10;;;;;;;14.42;67.68;101173.84;7368396;19;20085;-63
2023/09/16 05:45:16;;;;;;;0.10;0.10;;;;;;;14.43;67.37;101183.47;7368640;19;20411;-63
2023/09/16 05:47:44;;;;;;;0.10;0.10;;;;;;;14.31;67.63;101157.56;7368561;19;20007;-63
2023/09/16 05:50:11;;;;;;;0.10;0.10;;;;;;;14.41;67.85;101180.88;7369894;19;20663;-63
2023/09/16 05:52:37;;;;;;;0.10;0.10;;;;;;;14.41;67.62;101180.03;7367780;19;20078;-63
2023/09/16 05:55:02;;;;;;;0.10;0.10;;;;;;;14.30;67.75;101163.75;7371126;19;20615;-63
2023/09/16 05:57:28;;;;;;;0.10;0.10;;;;;;;14.27;67.78;101160.28;7370436;19;20419;-63
2023/09/16 05:59:53;;;;;;;0.10;0.10;;;;;;;14.25;67.92;101154.22;7365416;19;20006;-63
2023/09/16 06:02:19;;;;;;;0.10;0.10;;;;;;;14.37;68.10;101175.78;7368902;19;20042;-63
2023/09/16 06:04:44;;;;;;;0.05;0.05;;;;;;;14.21;67.95;101155.22;7370116;19;20356;-63
2023/09/16 06:07:10;;;;;;;0.10;0.10;;;;;;;14.35;68.07;101180.22;7364346;19;20026;-63
2023/09/16 06:09:35;;;;;;;0.10;0.10;;;;;;;14.35;67.76;101177.59;7368447;19;19998;-63
2023/09/16 06:12:01;;;;;;;0.10;0.10;;;;;;;14.35;68.25;101182.84;7364404;19;20035;-63
2023/09/16 06:14:26;;;;;;;0.03;0.03;;;;;;;14.32;67.81;101188.19;7369521;19;20006;-63
2023/09/16 06:16:51;;;;;;;0.10;0.10;;;;;;;14.34;68.16;101191.63;7370045;19;20034;-63
2023/09/16 06:19:17;;;;;;;0.10;0.10;;;;;;;14.22;68.19;101177.94;7370919;19;20037;-63
2023/09/16 06:21:42;;;;;;;0.10;0.10;;;;;;;14.32;67.93;101202.19;7363189;19;20389;-63
2023/09/16 06:24:08;;;;;;;0.00;0.00;;;;;;;14.32;67.88;101203.94;7372891;19;20007;-63
2023/09/16 06:26:33;;;;;;;0.05;0.05;;;;;;;14.32;68.22;101203.94;7370133;19;20013;-63
2023/09/16 06:28:58;;;;;;;0.10;0.10;;;;;;;14.31;68.38;101196.97;7369178;19;20335;-63
2023/09/16 06:31:24;;;;;;;0.10;0.10;;;;;;;14.30;68.04;101196.13;7369331;19;20010;-63
2023/09/16 06:33:50;;;;;;;0.00;0.00;;;;;;;14.16;68.24;101178.13;7365309;19;20014;-63
2023/09/16 06:36:15;;;;;;;0.10;0.10;;;;;;;14.29;68.04;101194.38;7365184;19;20050;-63
2023/09/16 06:38:40;;;;;;;0.10;0.10;;;;;;;14.28;68.02;101198.78;7366559;19;20118;-63
2023/09/16 06:41:06;;;;;;;0.10;0.10;;;;;;;14.24;68.23;101198.91;7368464;19;20021;-63
2023/09/16 06:43:31;;;;;;;0.10;0.10;;;;;;;14.26;68.12;101205.84;7368008;19;20002;-63
2023/09/16 06:45:56;;;;;;;0.10;0.10;;;;;;;14.28;68.36;101219.78;7358351;19;20014;-63
2023/09/16 06:48:22;;;;;;;0.10;0.10;;;;;;;14.28;68.04;101211.91;7366475;19;20925;-63
2023/09/16 06:50:47;;;;;;;0.00;0.00;;;;;;;14.29;68.25;101215.41;7365785;19;20014;-63
2023/09/16 06:53:13;;;;;;;0.10;0.10;;;;;;;14.23;68.27;101216.44;7367128;19;20006;-63
2023/09/16 06:55:38;;;;;;;0.00;0.00;;;;;;;14.29;68.46;101225.91;7358940;19;20479;-63
2023/09/16 06:58:06;;;;;;;0.10;0.10;;;;;;;14.30;68.38;101225.03;7368153;19;20478;-63
2023/09/16 07:00:31;;;;;;;;;;;;;;;14.37;67.29;101223.06;7373531;19;20018;-63
2023/09/16 07:02:59;;;;;;;0.10;0.10;;;;;;;14.25;67.84;101214.66;7364786;19;19918;-63
2023/09/16 07:05:27;;;;;;;0.10;0.10;;;;;;;14.33;68.23;101217.03;7368593;19;20011;-63
2023/09/16 07:07:52;;;;;;;0.00;0.00;;;;;;;14.33;68.26;101217.03;7364351;19;20006;-63
2023/09/16 07:10:19;;;;;;;0.10;0.10;;;;;;;14.34;67.98;101224.00;7368000;19;20017;-63
2023/09/16 07:12:44;;;;;;;0.10;0.10;;;;;;;14.34;68.08;101220.50;7363207;19;20006;-63
2023/09/16 07:15:10;;;;;;;0.00;0.00;;;;;;;14.35;68.31;101224.88;7368873;19;20010;-63
2023/09/16 07:17:35;;;;;;;0.10;0.10;;;;;;;14.36;67.93;101223.97;7362318;19;20485;-63
2023/09/16 07:20:01;;;;;;;0.00;0.00;;;;;;;14.28;67.96;101209.28;7368705;19;20014;-63
2023/09/16 07:22:26;;;;;;;0.10;0.10;;;;;;;14.37;68.05;101223.06;7366060;19;20387;-63
2023/09/16 07:24:52;;;;;;;0.10;0.10;;;;;;;14.39;68.09;101222.09;7361511;19;20015;-63
2023/09/16 07:27:17;;;;;;;0.00;0.00;;;;;;;14.40;68.14;101222.97;7369638;19;20018;-63
2023/09/16 07:29:43;;;;;;;0.10;0.10;;;;;;;14.27;67.94;101212.81;7365139;19;20038;-63
2023/09/16 07:32:09;;;;;;;0.10;0.10;;;;;;;14.44;68.07;101229.84;7364302;19;20015;-63
2023/09/16 07:34:34;;;;;;;0.10;0.10;;;;;;;14.44;68.24;101237.72;7364386;19;20069;-63
2023/09/16 07:37:01;;;;;;;0.10;0.10;;;;;;;14.45;67.83;101231.59;7370405;19;20042;-63
2023/09/16 07:39:27;;;;;;;0.10;0.10;;;;;;;14.47;68.03;101237.66;7367685;19;20034;-63
2023/09/16 07:41:52;;;;;;;0.10;0.10;;;;;;;14.48;67.73;101228.88;7350007;19;20462;-63
2023/09/16 07:44:17;;;;;;;0.10;0.10;;;;;;;14.48;67.90;101223.63;7367624;19;20029;-63
2023/09/16 07:46:43;;;;;;;0.10;0.10;;;;;;;14.50;67.98;101224.47;7367956;19;20006;-63
2023/09/16 07:49:08;;;;;;;0.10;0.10;;;;;;;14.40;67.98;101212.47;7368612;19;20014;-63
2023/09/16 07:51:34;;;;;;;0.10;0.10;;;;;;;14.52;67.99;101234.00;7362647;19;20396;-63
2023/09/16 07:54:01;;;;;;;0.10;0.10;;;;;;;14.41;67.76;101208.94;7365346;19;20043;-63
2023/09/16 07:56:26;;;;;;;0.10;0.10;;;;;;;14.55;67.85;101233.06;7345576;19;20043;-63
2023/09/16 07:58:51;;;;;;;0.10;0.10;;;;;;;14.53;68.22;101229.59;7362341;19;20934;-63
2023/09/16 08:01:17;;;;;;;0.10;0.10;;;;;;;14.57;67.71;101231.22;7368270;19;20432;-63
2023/09/16 08:03:42;;;;;;;0.10;0.10;;;;;;;14.55;68.26;101222.53;7366065;19;20017;-63
2023/09/16 08:06:08;;;;;;;0.10;0.10;;;;;;;14.59;67.97;101229.41;7364906;19;20061;-63
2023/09/16 08:08:34;;;;;;;0.10;0.10;;;;;;;14.60;67.96;101232.88;7363150;19;20485;-63
2023/09/16 08:10:59;;;;;;;0.10;0.10;;;;;;;14.62;68.01;101234.56;7363769;19;20026;-63
2023/09/16 08:13:24;;;;;;;0.10;0.10;;;;;;;14.60;67.72;101235.53;7362236;19;20002;-63
2023/09/16 08:15:50;;;;;;;0.10;0.10;;;;;;;14.66;68.09;101243.25;7362958;19;20006;-63
2023/09/16 08:18:15;;;;;;;0.10;0.10;;;;;;;14.68;67.64;101244.91;7361525;19;20010;-63
2023/09/16 08:20:41;;;;;;;0.10;0.10;;;;;;;14.71;67.71;101255.34;7362805;19;20028;-63
2023/09/16 08:23:09;;;;;;;0.10;0.10;;;;;;;14.75;67.97;101256.97;7365110;19;20037;-63
2023/09/16 08:25:34;;;;;;;0.00;0.00;;;;;;;14.62;67.81;101234.56;7360617;19;20010;-63
2023/09/16 08:28:00;;;;;;;0.00;0.00;;;;;;;14.83;67.77;101269.00;7345820;19;20033;-63
2023/09/16 08:30:25;;;;;;;0.10;0.10;;;;;;;14.87;68.06;101262.75;7359660;19;20011;-63
2023/09/16 08:32:51;;;;;;;0.10;0.10;;;;;;;14.90;67.56;101267.88;7364179;19;20040;-63
2023/09/16 08:35:16;;;;;;;0.10;0.10;;;;;;;14.93;67.47;101265.16;7363856;19;20011;-63
2023/09/16 08:37:41;;;;;;;0.10;0.10;;;;;;;14.96;67.45;101272.97;7362501;19;20010;-63
2023/09/16 08:40:07;;;;;;;0.10;0.10;;;;;;;14.98;67.45;101274.63;7362780;19;20018;-63
2023/09/16 08:42:41;;;;;;;0.10;0.10;;;;;;;15.02;67.78;101268.38;7354284;19;20014;-62
2023/09/16 08:45:14;;;;;;;0.10;0.10;;;;;;;15.06;67.48;101269.13;7346005;19;20854;-63
2023/09/16 08:47:52;;;;;;;0.08;0.08;;;;;;;15.10;67.21;101272.50;7353714;19;20002;-63
2023/09/16 08:50:20;;;;;;;0.10;0.10;;;;;;;15.06;67.54;101271.78;7359134;19;20011;-63
2023/09/16 08:52:53;;;;;;;0.10;0.10;;;;;;;15.11;67.59;101277.75;7330596;19;20010;-63
2023/09/16 08:55:19;;;;;;;0.10;0.10;;;;;;;15.10;67.29;101277.78;7360579;19;20007;-63
2023/09/16 08:57:50;;;;;;;0.08;0.08;;;;;;;15.12;67.41;101276.81;7361872;19;20010;-63
2023/09/16 09:00:17;;;;;;;0.10;0.10;;;;;;;15.10;67.79;101262.84;7364248;19;20109;-63
2023/09/16 09:02:43;;;;;;;0.10;0.10;;;;;;;15.12;67.38;101271.56;7360651;19;20021;-63
2023/09/16 09:05:11;;;;;;;0.10;0.10;;;;;;;15.13;67.41;101272.41;7359695;19;20022;-63
2023/09/16 09:07:37;;;;;;;0.10;0.10;;;;;;;15.07;67.80;101268.22;7357624;19;19998;-63
2023/09/16 09:10:04;;;;;;;0.10;0.10;;;;;;;15.12;67.63;101282.09;7362033;19;20019;-63
2023/09/16 09:12:33;;;;;;;0.10;0.10;;;;;;;15.13;67.40;101283.81;7361795;19;20046;-63
2023/09/16 09:15:03;;;;;;;0.10;0.10;;;;;;;15.11;67.57;101275.13;7363514;19;20017;-63
2023/09/16 09:17:37;;;;;;;0.10;0.10;;;;;;;15.16;67.54;101283.72;7351851;19;20023;-63
2023/09/16 09:20:14;;;;;;;0.10;0.10;;;;;;;15.15;67.55;101286.38;7370269;19;20012;-63
2023/09/16 09:22:41;;;;;;;0.10;0.10;;;;;;;15.15;67.65;101291.63;7369363;19;20014;-63
2023/09/16 09:25:07;;;;;;;0.10;0.10;;;;;;;15.15;67.47;101289.84;7369095;19;20022;-63
2023/09/16 09:27:33;;;;;;;0.10;0.10;;;;;;;15.14;67.85;101275.00;7364964;19;20014;-63
2023/09/16 09:29:58;;;;;;;0.10;0.10;;;;;;;15.14;67.65;101287.28;7365668;19;20047;-63
2023/09/16 09:32:33;;;;;;;0.10;0.10;;;;;;;15.18;67.27;101297.66;7364485;19;20042;-63
2023/09/16 09:35:05;;;;;;;0.10;0.10;;;;;;;15.18;67.39;101291.56;7365471;19;20017;-63
2023/09/16 09:37:31;;;;;;;0.10;0.10;;;;;;;14.98;67.99;101268.50;7364137;19;20014;-63
2023/09/16 09:40:09;;;;;;;0.10;0.10;;;;;;;15.19;67.70;101294.13;7366199;19;20958;-63
2023/09/16 09:42:43;;;;;;;0.10;0.10;;;;;;;15.16;67.70;101293.38;7367258;19;20011;-63
2023/09/16 09:45:09;;;;;;;0.10;0.10;;;;;;;15.15;67.83;101303.00;7359990;19;20102;-63
2023/09/16 09:47:36;;;;;;;0.10;0.10;;;;;;;15.10;68.21;101299.66;7366637;19;20011;-63
2023/09/16 09:50:03;;;;;;;0.10;0.10;;;;;;;15.15;67.97;101305.66;7362477;19;20418;-63
2023/09/16 09:52:29;;;;;;;0.10;0.10;;;;;;;15.10;68.09;101294.41;7361842;19;20018;-63
2023/09/16 09:54:56;;;;;;;0.10;0.10;;;;;;;15.17;67.80;101308.25;7366892;19;20002;-63
2023/09/16 09:57:22;;;;;;;0.10;0.10;;;;;;;15.19;67.90;101304.66;7362918;19;20552;-63
2023/09/16 09:59:47;;;;;;;0.10;0.10;;;;;;;15.20;68.21;101311.63;7364130;19;20011;-63
2023/09/16 10:02:14;;;;;;;0.10;0.10;;;;;;;15.18;68.08;101302.94;7366365;19;20014;-63
2023/09/16 10:04:39;;;;;;;0.10;0.10;;;;;;;15.25;68.13;101303.59;7363467;19;20026;-63
2023/09/16 10:07:05;;;;;;;0.10;0.10;;;;;;;15.26;67.82;101306.19;7364747;19;20758;-63
2023/09/16 10:09:30;;;;;;;0.10;0.10;;;;;;;15.22;68.01;101291.41;7371535;19;20011;-63
2023/09/16 10:11:56;;;;;;;0.00;0.00;;;;;;;15.30;67.89;101306.94;7369354;19;20006;-63
2023/09/16 10:14:22;;;;;;;0.10;0.10;;;;;;;15.24;68.14;101294.84;7364099;19;20142;-63
2023/09/16 10:16:48;;;;;;;0.10;0.10;;;;;;;15.31;67.81;101296.38;7365024;19;20404;-63
2023/09/16 10:19:14;;;;;;;0.10;0.10;;;;;;;15.30;67.72;101296.41;7365656;19;20014;-63
2023/09/16 10:21:40;;;;;;;0.10;0.10;;;;;;;15.34;67.88;101294.53;7364667;19;20010;-63
2023/09/16 10:24:08;;;;;;;0.10;0.10;;;;;;;15.35;67.97;101309.41;7367348;19;20013;-63
2023/09/16 10:26:34;;;;;;;0.10;0.10;;;;;;;15.27;67.83;101286.84;7364739;19;20014;-63
2023/09/16 10:29:00;;;;;;;0.10;0.10;;;;;;;15.37;67.86;101297.09;7365724;19;20018;-63
2023/09/16 10:31:28;;;;;;;0.08;0.08;;;;;;;15.40;67.71;101296.97;7354383;19;20019;-63
2023/09/16 10:33:55;;;;;;;0.10;0.10;;;;;;;15.40;67.86;101294.31;7362867;19;20772;-63
2023/09/16 10:36:21;;;;;;;0.10;0.10;;;;;;;15.42;67.77;101287.25;7354954;19;20050;-63
2023/09/16 10:38:48;;;;;;;0.10;0.10;;;;;;;15.30;67.64;101270.94;7365266;19;20031;-63
2023/09/16 10:41:15;;;;;;;0.10;0.10;;;;;;;15.50;67.58;101303.63;7358031;19;20041;-63
2023/09/16 10:43:43;;;;;;;0.10;0.10;;;;;;;15.50;68.17;101306.28;7363400;19;20025;-63
2023/09/16 10:46:09;;;;;;;0.10;0.10;;;;;;;15.49;67.99;101296.66;7355863;19;20086;-63
2023/09/16 10:48:34;;;;;;;0.10;0.10;;;;;;;15.55;67.69;101306.97;7363110;19;20018;-63
2023/09/16 10:51:04;;;;;;;0.10;0.10;;;;;;;15.57;67.92;101302.53;7359352;19;20041;-63
2023/09/16 10:53:39;;;;;;;0.10;0.10;;;;;;;15.60;67.88;101298.94;7364310;19;20014;-63
2023/09/16 10:56:19;;;;;;;0.10;0.10;;;;;;;15.65;67.33;101308.41;7361108;19;20014;-63
2023/09/16 10:58:47;;;;;;;0.00;0.00;;;;;;;15.62;67.33;101303.25;7362464;19;20051;-63
2023/09/16 11:01:27;;;;;;;0.10;0.10;;;;;;;15.66;67.09;101302.25;7361953;19;20047;-63
2023/09/16 11:04:01;;;;;;;0.03;0.03;;;;;;;15.66;67.18;101312.78;7368057;19;20017;-63
2023/09/16 11:06:27;;;;;;;0.10;0.10;;;;;;;15.44;67.67;101264.38;7360696;19;20031;-63
2023/09/16 11:08:53;;;;;;;0.10;0.10;;;;;;;15.65;67.44;101303.16;7362884;19;20022;-63
2023/09/16 11:11:20;;;;;;;0.10;0.10;;;;;;;15.65;67.22;101308.41;7356665;19;20030;-63
2023/09/16 11:13:46;;;;;;;0.10;0.10;;;;;;;15.66;67.21;101288.22;7361098;19;20010;-63
2023/09/16 11:16:12;;;;;;;0.10;0.10;;;;;;;15.66;67.33;101299.63;7362044;19;20006;-63
2023/09/16 11:18:42;;;;;;;0.10;0.10;;;;;;;15.67;67.41;101297.84;7357205;19;20455;-63
2023/09/16 11:21:07;;;;;;;0.10;0.10;;;;;;;15.67;67.54;101298.72;7362187;19;20236;-63
2023/09/16 11:23:33;;;;;;;0.10;0.10;;;;;;;15.67;67.80;101301.34;7369937;19;20011;-63